createdAt,value
2018-06-16T00:00:20.129Z,97520.14
2018-06-16T00:02:49.695Z,97519.80
2018-06-16T00:05:19.106Z,97518.96
2018-06-16T00:07:48.454Z,97526.26
2018-06-16T00:10:17.811Z,97523.87
2018-06-16T00:12:47.136Z,97518.11
2018-06-16T00:15:16.652Z,97525.75
2018-06-16T00:17:46.125Z,97523.55
2018-06-16T00:20:16.113Z,97527.98
2018-06-16T00:22:45.522Z,97523.11
2018-06-16T00:25:14.990Z,97528.72
2018-06-16T00:27:44.987Z,97523.65
2018-06-16T00:30:14.569Z,97523.31
2018-06-16T00:32:43.914Z,97516.23
2018-06-16T00:35:13.655Z,97518.40
2018-06-16T00:37:43.484Z,97519.13
2018-06-16T00:40:12.822Z,97515.56
2018-06-16T00:42:42.233Z,97513.88
2018-06-16T00:45:11.652Z,97517.94
2018-06-16T00:47:41.000Z,97516.59
2018-06-16T00:50:10.309Z,97515.92
2018-06-16T00:52:39.662Z,97515.08
2018-06-16T00:55:09.525Z,97511.18
2018-06-16T00:57:51.976Z,97506.78
2018-06-16T01:00:21.789Z,97510.84
2018-06-16T01:02:51.150Z,97514.61
2018-06-16T01:05:20.472Z,97513.77
2018-06-16T01:07:50.444Z,97517.33
2018-06-16T01:10:19.913Z,97509.88
2018-06-16T01:12:49.457Z,97513.10
2018-06-16T01:15:18.802Z,97510.91
2018-06-16T01:17:48.209Z,97512.26
2018-06-16T01:20:17.675Z,97514.13
2018-06-16T01:22:47.028Z,97516.50
2018-06-16T01:25:16.485Z,97511.59
2018-06-16T01:27:45.881Z,97515.66
2018-06-16T01:30:15.184Z,97518.04
2018-06-16T01:32:44.612Z,97520.75
2018-06-16T01:35:13.919Z,97521.77
2018-06-16T01:37:43.772Z,97520.59
2018-06-16T01:40:13.280Z,97525.00
2018-06-16T01:42:42.648Z,97514.36
2018-06-16T01:45:12.744Z,97516.53
2018-06-16T01:47:42.084Z,97514.87
2018-06-16T01:50:11.470Z,97517.25
2018-06-16T01:52:41.637Z,97516.41
2018-06-16T01:55:11.029Z,97513.86
2018-06-16T01:57:40.440Z,97513.35
2018-06-16T02:00:09.883Z,97515.73
2018-06-16T02:02:39.365Z,97507.27
2018-06-16T02:05:08.581Z,97507.44
2018-06-16T02:07:38.132Z,97500.32
2018-06-16T02:10:07.530Z,97502.70
2018-06-16T02:12:36.965Z,97511.38
2018-06-16T02:15:06.676Z,97503.42
2018-06-16T02:17:36.093Z,97509.36
2018-06-16T02:20:05.926Z,97512.42
2018-06-16T02:22:36.120Z,97509.37
2018-06-16T02:25:05.495Z,97510.40
2018-06-16T02:27:35.199Z,97514.13
2018-06-16T02:30:04.557Z,97506.17
2018-06-16T02:32:34.035Z,97506.34
2018-06-16T02:35:03.800Z,97504.66
2018-06-16T02:37:33.421Z,97507.03
2018-06-16T02:40:03.012Z,97503.48
2018-06-16T02:42:32.448Z,97507.20
2018-06-16T02:45:02.026Z,97511.79
2018-06-16T02:47:31.380Z,97504.67
2018-06-16T02:50:00.906Z,97511.12
2018-06-16T02:52:30.347Z,97508.91
2018-06-16T02:54:59.893Z,97509.45
2018-06-16T02:57:29.741Z,97509.13
2018-06-16T02:59:59.222Z,97505.56
2018-06-16T03:02:28.677Z,97504.39
2018-06-16T03:04:58.173Z,97507.61
2018-06-16T03:07:28.223Z,97501.34
2018-06-16T03:09:57.797Z,97501.52
2018-06-16T03:12:27.393Z,97503.72
2018-06-16T03:14:56.901Z,97499.83
2018-06-16T03:17:26.372Z,97497.62
2018-06-16T03:19:57.273Z,97495.94
2018-06-16T03:22:27.213Z,97496.44
2018-06-16T03:24:57.125Z,97498.64
2018-06-16T03:27:26.677Z,97500.51
2018-06-16T03:29:56.286Z,97500.20
2018-06-16T03:32:25.701Z,97494.96
2018-06-16T03:34:55.228Z,97499.02
2018-06-16T03:37:24.723Z,97495.47
2018-06-16T03:39:54.338Z,97494.96
2018-06-16T03:42:23.800Z,97494.63
2018-06-16T03:44:53.713Z,97500.05
2018-06-16T03:47:23.157Z,97495.64
2018-06-16T03:49:52.827Z,97503.78
2018-06-16T03:52:22.924Z,97496.67
2018-06-16T03:54:52.746Z,97497.51
2018-06-16T03:57:22.290Z,97498.02
2018-06-16T03:59:51.863Z,97501.24
2018-06-16T04:02:21.662Z,97497.17
2018-06-16T04:04:51.400Z,97496.33
2018-06-16T04:07:21.156Z,97498.20
2018-06-16T04:09:51.037Z,97499.55
2018-06-16T04:12:20.728Z,97493.28
2018-06-16T04:14:50.100Z,97498.20
2018-06-16T04:17:20.753Z,97500.39
2018-06-16T04:19:52.426Z,97500.39
2018-06-16T04:22:22.352Z,97501.41
2018-06-16T04:24:51.935Z,97504.12
2018-06-16T04:27:21.440Z,97504.64
2018-06-16T04:29:50.797Z,97504.47
2018-06-16T04:32:20.257Z,97499.22
2018-06-16T04:34:49.748Z,97502.77
2018-06-16T04:37:19.270Z,97502.77
2018-06-16T04:39:48.961Z,97499.55
2018-06-16T04:42:18.288Z,97498.53
2018-06-16T04:44:47.724Z,97503.28
2018-06-16T04:47:17.895Z,97500.91
2018-06-16T04:49:47.413Z,97507.69
2018-06-16T04:52:16.981Z,97508.87
2018-06-16T04:54:46.357Z,97505.81
2018-06-16T04:57:15.837Z,97507.17
2018-06-16T04:59:45.468Z,97510.22
2018-06-16T05:02:15.365Z,97507.52
2018-06-16T05:04:44.922Z,97500.56
2018-06-16T05:07:14.289Z,97503.27
2018-06-16T05:09:44.096Z,97501.41
2018-06-16T05:12:13.537Z,97502.76
2018-06-16T05:14:43.079Z,97500.72
2018-06-16T05:17:12.959Z,97498.19
2018-06-16T05:19:42.834Z,97499.88
2018-06-16T05:22:12.431Z,97495.63
2018-06-16T05:24:42.191Z,97500.72
2018-06-16T05:27:11.685Z,97493.43
2018-06-16T05:29:41.304Z,97484.78
2018-06-16T05:32:10.899Z,97494.06
2018-06-16T05:34:41.479Z,97494.58
2018-06-16T05:37:11.272Z,97494.91
2018-06-16T05:39:40.741Z,97494.91
2018-06-16T05:42:10.180Z,97498.98
2018-06-16T05:44:39.592Z,97498.98
2018-06-16T05:47:09.232Z,97497.95
2018-06-16T05:49:39.231Z,97499.65
2018-06-16T05:52:08.752Z,97503.20
2018-06-16T05:54:38.133Z,97501.00
2018-06-16T05:57:07.764Z,97503.54
2018-06-16T05:59:37.172Z,97498.12
2018-06-16T06:02:06.656Z,97496.77
2018-06-16T06:04:36.726Z,97497.94
2018-06-16T06:07:06.312Z,97500.32
2018-06-16T06:14:14.757Z,97501.63
2018-06-16T06:16:44.325Z,97496.20
2018-06-16T06:19:16.153Z,97498.41
2018-06-16T06:21:46.280Z,97504.16
2018-06-16T06:24:16.108Z,97500.55
2018-06-16T06:26:45.674Z,97502.34
2018-06-16T06:29:15.392Z,97507.59
2018-06-16T06:31:45.216Z,97504.19
2018-06-16T06:34:14.765Z,97508.59
2018-06-16T06:36:44.151Z,97509.23
2018-06-16T06:39:13.859Z,97511.77
2018-06-16T06:41:43.996Z,97514.30
2018-06-16T06:44:13.490Z,97512.77
2018-06-16T06:46:43.051Z,97512.26
2018-06-16T06:49:12.597Z,97517.00
2018-06-16T06:51:42.726Z,97519.83
2018-06-16T06:54:12.467Z,97516.61
2018-06-16T06:56:41.845Z,97521.02
2018-06-16T06:59:11.215Z,97523.88
2018-06-16T07:01:41.160Z,97522.02
2018-06-16T07:04:10.664Z,97516.92
2018-06-16T07:06:40.243Z,97522.69
2018-06-16T07:09:11.135Z,97522.47
2018-06-16T07:11:40.843Z,97518.95
2018-06-16T07:14:10.602Z,97525.73
2018-06-16T07:16:39.993Z,97527.72
2018-06-16T07:19:10.568Z,97529.59
2018-06-16T07:21:40.535Z,97529.08
2018-06-16T07:24:09.977Z,97523.14
2018-06-16T07:26:39.904Z,97523.98
2018-06-16T07:29:09.339Z,97527.54
2018-06-16T07:31:38.838Z,97529.41
2018-06-16T07:34:08.597Z,97532.45
2018-06-16T07:36:38.032Z,97528.72
2018-06-16T07:39:09.172Z,97532.97
2018-06-16T07:41:38.690Z,97531.10
2018-06-16T07:44:08.321Z,97529.90
2018-06-16T07:46:37.779Z,97528.03
2018-06-16T07:49:07.414Z,97528.70
2018-06-16T07:51:37.133Z,97530.87
2018-06-16T07:54:06.473Z,97531.71
2018-06-16T07:56:36.379Z,97523.20
2018-06-16T07:59:06.928Z,97521.41
2018-06-16T08:01:36.473Z,97518.34
2018-06-16T08:04:05.948Z,97515.11
2018-06-16T08:06:35.414Z,97520.48
2018-06-16T08:09:11.675Z,97513.69
2018-06-16T08:11:41.652Z,97515.02
2018-06-16T08:14:11.582Z,97517.84
2018-06-16T08:16:41.414Z,97517.63
2018-06-16T08:19:11.893Z,97514.59
2018-06-16T08:21:41.453Z,97516.13
2018-06-16T08:24:11.851Z,97513.92
2018-06-16T08:26:42.107Z,97516.91
2018-06-16T08:29:12.045Z,97518.23
2018-06-16T08:31:41.505Z,97517.20
2018-06-16T08:34:11.596Z,97515.33
2018-06-16T08:36:41.172Z,97518.89
2018-06-16T08:39:12.526Z,97520.36
2018-06-16T08:41:42.259Z,97519.48
2018-06-16T08:44:12.284Z,97528.56
2018-06-16T08:46:42.968Z,97528.02
2018-06-16T08:49:13.004Z,97528.16
2018-06-16T08:51:43.477Z,97525.70
2018-06-16T08:54:14.583Z,97523.83
2018-06-16T08:56:44.445Z,97525.27
2018-06-16T08:59:13.974Z,97517.58
2018-06-16T09:01:43.223Z,97519.45
2018-06-16T09:04:12.675Z,97520.73
2018-06-16T09:06:42.236Z,97515.96
2018-06-16T09:09:11.992Z,97519.71
2018-06-16T09:11:41.710Z,97520.19
2018-06-16T09:14:11.934Z,97510.30
2018-06-16T09:16:41.205Z,97518.56
2018-06-16T09:19:10.741Z,97522.23
2018-06-16T09:21:40.366Z,97518.07
2018-06-16T09:24:10.662Z,97523.00
2018-06-16T09:26:40.845Z,97519.76
2018-06-16T09:29:10.993Z,97517.37
2018-06-16T09:31:40.375Z,97520.42
2018-06-16T09:34:09.702Z,97521.59
2018-06-16T09:36:39.121Z,97523.39
2018-06-16T09:39:10.877Z,97520.16
2018-06-16T09:41:41.180Z,97517.94
2018-06-16T09:44:12.572Z,97517.53
2018-06-16T09:46:42.937Z,97519.73
2018-06-16T09:49:12.756Z,97514.05
2018-06-16T09:51:43.164Z,97511.66
2018-06-16T09:54:12.796Z,97511.01
2018-06-16T09:56:42.674Z,97521.89
2018-06-16T09:59:13.183Z,97519.58
2018-06-16T10:01:42.944Z,97515.02
2018-06-16T10:04:13.188Z,97512.82
2018-06-16T10:06:43.020Z,97516.05
2018-06-16T10:09:12.568Z,97516.46
2018-06-16T10:11:42.116Z,97509.58
2018-06-16T10:14:11.604Z,97520.42
2018-06-16T10:16:42.252Z,97514.66
2018-06-16T10:19:11.683Z,97514.98
2018-06-16T10:21:41.055Z,97512.91
2018-06-16T10:24:10.885Z,97511.52
2018-06-16T10:26:40.458Z,97506.55
2018-06-16T10:29:09.995Z,97505.55
2018-06-16T10:31:39.253Z,97503.35
2018-06-16T10:34:08.908Z,97511.84
2018-06-16T10:36:39.224Z,97507.91
2018-06-16T10:39:09.841Z,97502.84
2018-06-16T10:41:43.682Z,97501.63
2018-06-16T10:44:12.984Z,97500.95
2018-06-16T10:46:43.025Z,97499.08
2018-06-16T10:49:13.144Z,97494.48
2018-06-16T10:51:43.241Z,97499.08
2018-06-16T10:54:12.870Z,97495.84
2018-06-16T10:56:42.539Z,97495.91
2018-06-16T10:59:12.157Z,97497.55
2018-06-16T11:01:42.052Z,97499.48
2018-06-16T11:04:11.878Z,97500.65
2018-06-16T11:06:41.441Z,97500.23
2018-06-16T11:09:11.514Z,97501.22
2018-06-16T11:11:41.185Z,97501.03
2018-06-16T11:14:11.297Z,97499.16
2018-06-16T11:16:40.827Z,97493.19
2018-06-16T11:19:11.286Z,97493.00
2018-06-16T11:21:40.668Z,97490.61
2018-06-16T11:24:10.824Z,97490.39
2018-06-16T11:26:41.659Z,97489.16
2018-06-16T11:29:15.267Z,97487.94
2018-06-16T11:31:45.125Z,97483.25
2018-06-16T11:34:15.597Z,97480.20
2018-06-16T11:36:45.679Z,97477.09
2018-06-16T11:39:16.107Z,97473.15
2018-06-16T11:41:45.800Z,97470.02
2018-06-16T11:44:29.502Z,97464.38
2018-06-16T11:47:04.324Z,97462.82
2018-06-16T11:49:34.553Z,97466.20
2018-06-16T11:52:03.964Z,97470.09
2018-06-16T11:54:34.243Z,97467.75
2018-06-16T11:57:03.681Z,97470.15
2018-06-16T11:59:35.226Z,97467.04
2018-06-16T12:02:04.870Z,97466.20
2018-06-16T12:04:34.487Z,97458.41
2018-06-16T12:07:03.990Z,97458.22
2018-06-16T12:09:33.372Z,97459.39
2018-06-16T12:12:02.784Z,97459.58
2018-06-16T12:14:33.346Z,97456.53
2018-06-16T12:17:03.430Z,97457.89
2018-06-16T12:19:33.108Z,97456.20
2018-06-16T12:22:02.873Z,97457.34
2018-06-16T12:24:36.211Z,97450.72
2018-06-16T12:27:07.003Z,97447.34
2018-06-16T12:29:38.029Z,97448.84
2018-06-16T12:32:07.884Z,97442.69
2018-06-16T12:34:38.028Z,97439.97
2018-06-16T12:37:08.765Z,97437.86
2018-06-16T12:39:38.271Z,97436.77
2018-06-16T12:42:25.989Z,97435.08
2018-06-16T12:44:55.775Z,97433.59
2018-06-16T12:47:25.290Z,97432.41
2018-06-16T12:49:55.197Z,97426.16
2018-06-16T12:52:24.698Z,97421.75
2018-06-16T12:54:54.505Z,97421.43
2018-06-16T12:57:24.272Z,97415.33
2018-06-16T12:59:54.128Z,97409.56
2018-06-16T13:02:23.873Z,97401.92
2018-06-16T13:04:53.329Z,97394.59
2018-06-16T13:07:22.734Z,97397.51
2018-06-16T13:09:52.344Z,97400.33
2018-06-16T13:12:23.441Z,97399.91
2018-06-16T13:14:52.937Z,97397.51
2018-06-16T13:17:22.370Z,97392.39
2018-06-16T13:19:51.862Z,97393.33
2018-06-16T13:22:22.300Z,97396.89
2018-06-16T13:24:51.823Z,97389.66
2018-06-16T13:27:21.268Z,97390.19
2018-06-16T13:29:50.869Z,97384.36
2018-06-16T13:32:20.545Z,97388.11
2018-06-16T13:34:50.211Z,97386.95
2018-06-16T13:37:19.711Z,97379.81
2018-06-16T13:39:49.619Z,97382.54
2018-06-16T13:42:18.994Z,97378.36
2018-06-16T13:44:48.519Z,97378.22
2018-06-16T13:47:18.607Z,97386.39
2018-06-16T13:49:52.231Z,97381.98
2018-06-16T13:52:22.426Z,97390.34
2018-06-16T13:54:54.848Z,97384.77
2018-06-16T13:57:24.455Z,97390.43
2018-06-16T13:59:55.202Z,97401.51
2018-06-16T14:02:24.700Z,97399.30
2018-06-16T14:04:55.056Z,97398.84
2018-06-16T14:07:24.565Z,97405.45
2018-06-16T14:09:54.607Z,97404.29
2018-06-16T14:12:25.017Z,97402.93
2018-06-16T14:14:54.974Z,97406.36
2018-06-16T14:17:24.461Z,97406.64
2018-06-16T14:19:54.735Z,97412.74
2018-06-16T14:22:24.247Z,97410.30
2018-06-16T14:24:54.154Z,97397.92
2018-06-16T14:27:23.787Z,97380.48
2018-06-16T14:29:53.583Z,97378.73
2018-06-16T14:32:23.004Z,97379.77
2018-06-16T14:34:52.604Z,97376.15
2018-06-16T14:37:22.154Z,97384.30
2018-06-16T14:39:51.767Z,97388.67
2018-06-16T14:42:21.311Z,97385.84
2018-06-16T14:44:50.796Z,97387.53
2018-06-16T14:47:20.294Z,97384.68
2018-06-16T14:49:49.837Z,97380.73
2018-06-16T14:52:19.444Z,97376.00
2018-06-16T14:54:48.950Z,97371.73
2018-06-16T14:57:18.520Z,97367.23
2018-06-16T14:59:48.034Z,97361.73
2018-06-16T15:02:17.615Z,97364.58
2018-06-16T15:04:47.279Z,97356.09
2018-06-16T15:07:17.092Z,97356.61
2018-06-16T15:09:46.614Z,97358.30
2018-06-16T15:12:16.122Z,97356.70
2018-06-16T15:14:45.677Z,97359.23
2018-06-16T15:17:15.125Z,97349.70
2018-06-16T15:19:44.810Z,97352.95
2018-06-16T15:22:15.229Z,97348.02
2018-06-16T15:24:44.759Z,97334.94
2018-06-16T15:27:14.278Z,97337.98
2018-06-16T15:29:43.756Z,97338.30
2018-06-16T15:32:13.249Z,97337.78
2018-06-16T15:34:43.412Z,97333.37
2018-06-16T15:37:13.000Z,97332.21
2018-06-16T15:39:42.573Z,97336.10
2018-06-16T15:42:12.078Z,97336.42
2018-06-16T15:44:41.956Z,97340.83
2018-06-16T15:47:12.587Z,97332.34
2018-06-16T15:49:42.032Z,97334.55
2018-06-16T15:52:11.781Z,97341.16
2018-06-16T15:54:41.707Z,97336.04
2018-06-16T15:57:11.341Z,97338.44
2018-06-16T15:59:43.340Z,97332.34
2018-06-16T16:02:13.996Z,97331.31
2018-06-16T16:04:44.983Z,97325.86
2018-06-16T16:07:14.675Z,97329.43
2018-06-16T16:09:44.353Z,97327.03
2018-06-16T16:12:15.416Z,97334.06
2018-06-16T16:14:45.021Z,97329.98
2018-06-16T16:17:16.071Z,97329.62
2018-06-16T16:19:46.894Z,97322.07
2018-06-16T16:22:16.688Z,97328.09
2018-06-16T16:24:47.935Z,97327.16
2018-06-16T16:27:17.745Z,97332.27
2018-06-16T16:29:48.509Z,97324.82
2018-06-16T16:32:27.338Z,97323.66
2018-06-16T16:34:56.912Z,97320.19
2018-06-16T16:37:26.431Z,97319.53
2018-06-16T16:39:56.328Z,97318.17
2018-06-16T16:42:25.952Z,97321.41
2018-06-16T16:44:55.886Z,97321.93
2018-06-16T16:47:25.471Z,97317.20
2018-06-16T16:49:54.848Z,97326.91
2018-06-16T16:52:24.240Z,97326.39
2018-06-16T16:54:54.195Z,97330.99
2018-06-16T16:57:24.923Z,97338.50
2018-06-16T16:59:54.652Z,97346.38
2018-06-16T17:02:24.963Z,97354.72
2018-06-16T17:04:54.920Z,97355.59
2018-06-16T17:07:24.599Z,97374.30
2018-06-16T17:09:54.869Z,97377.02
2018-06-16T17:12:24.588Z,97375.15
2018-06-16T17:14:54.374Z,97382.11
2018-06-16T17:17:23.767Z,97390.41
2018-06-16T17:19:54.073Z,97388.53
2018-06-16T17:22:23.567Z,97387.55
2018-06-16T17:24:54.040Z,97385.35
2018-06-16T17:27:23.609Z,97375.51
2018-06-16T17:29:53.381Z,97377.02
2018-06-16T17:32:22.939Z,97372.95
2018-06-16T17:34:52.443Z,97357.88
2018-06-16T17:37:24.000Z,97364.46
2018-06-16T17:39:58.016Z,97367.70
2018-06-16T17:42:27.569Z,97372.84
2018-06-16T17:44:58.107Z,97369.80
2018-06-16T17:49:52.636Z,97367.27
2018-06-16T17:52:22.184Z,97366.42
2018-06-16T17:54:52.339Z,97366.94
2018-06-16T17:57:22.044Z,97363.37
2018-06-16T17:59:53.843Z,97358.97
2018-06-16T18:02:27.459Z,97371.73
2018-06-16T18:04:57.164Z,97375.16
2018-06-16T18:07:26.915Z,97365.63
2018-06-16T18:09:56.608Z,97367.52
2018-06-16T18:12:26.400Z,97363.44
2018-06-16T18:14:56.149Z,97361.78
2018-06-16T18:17:25.582Z,97356.34
2018-06-16T18:19:55.034Z,97360.09
2018-06-16T18:22:25.988Z,97369.80
2018-06-16T18:24:55.696Z,97363.70
2018-06-16T18:27:25.295Z,97370.51
2018-06-16T18:29:55.068Z,97358.45
2018-06-16T18:32:25.247Z,97367.65
2018-06-16T18:34:54.788Z,97369.52
2018-06-16T18:37:24.335Z,97375.19
2018-06-16T18:39:54.322Z,97377.91
2018-06-16T18:42:23.685Z,97389.30
2018-06-16T18:44:53.155Z,97391.17
2018-06-16T18:47:22.636Z,97388.64
2018-06-16T18:49:52.293Z,97391.03
2018-06-16T18:52:21.668Z,97393.42
2018-06-16T18:54:51.965Z,97396.66
2018-06-16T18:57:21.865Z,97410.25
2018-06-16T18:59:51.213Z,97418.49
2018-06-16T19:02:21.499Z,97427.72
2018-06-16T19:04:51.692Z,97431.98
2018-06-16T19:07:21.443Z,97430.81
2018-06-16T19:09:51.059Z,97436.77
2018-06-16T19:12:20.856Z,97443.27
2018-06-16T19:14:50.814Z,97442.28
2018-06-16T19:17:21.099Z,97439.89
2018-06-16T19:19:51.466Z,97445.14
2018-06-16T19:22:21.076Z,97438.02
2018-06-16T19:24:50.544Z,97445.00
2018-06-16T19:27:20.902Z,97437.03
2018-06-16T19:29:51.597Z,97439.94
2018-06-16T19:32:21.840Z,97437.73
2018-06-16T19:34:51.532Z,97438.77
2018-06-16T19:37:21.068Z,97442.22
2018-06-16T19:39:50.707Z,97442.07
2018-06-16T19:42:20.194Z,97449.71
2018-06-16T19:44:49.781Z,97447.36
2018-06-16T19:47:19.239Z,97446.00
2018-06-16T19:51:02.792Z,97454.86
2018-06-16T19:53:32.898Z,97455.59
2018-06-16T19:56:02.302Z,97457.47
2018-06-16T19:58:32.471Z,97456.80
2018-06-16T20:01:02.029Z,97455.63
2018-06-16T20:03:45.266Z,97456.66
2018-06-16T20:06:15.149Z,97453.28
2018-06-16T20:08:44.892Z,97452.98
2018-06-16T20:11:14.396Z,97454.02
2018-06-16T20:13:44.427Z,97455.04
2018-06-16T20:16:18.608Z,97462.86
2018-06-16T20:18:48.487Z,97466.28
2018-06-16T20:21:18.785Z,97468.99
2018-06-16T20:23:48.280Z,97471.53
2018-06-16T20:26:18.382Z,97469.66
2018-06-16T20:28:49.890Z,97472.19
2018-06-16T20:31:20.062Z,97479.09
2018-06-16T20:33:50.120Z,97472.30
2018-06-16T20:36:19.674Z,97479.09
2018-06-16T20:38:49.651Z,97483.50
2018-06-16T20:41:19.584Z,97487.58
2018-06-16T20:43:49.063Z,97481.95
2018-06-16T20:46:18.520Z,97479.23
2018-06-16T20:48:48.594Z,97476.52
2018-06-16T20:51:18.486Z,97473.30
2018-06-16T20:53:49.370Z,97469.55
2018-06-16T20:56:19.408Z,97471.75
2018-06-16T20:58:53.102Z,97478.36
2018-06-16T21:01:22.826Z,97475.31
2018-06-16T21:03:52.799Z,97480.05
2018-06-16T21:06:22.298Z,97482.77
2018-06-16T21:08:51.732Z,97486.84
2018-06-16T21:11:21.327Z,97483.61
2018-06-16T21:13:50.706Z,97492.39
2018-06-16T21:16:20.037Z,97491.55
2018-06-16T21:18:49.931Z,97489.67
2018-06-16T21:21:19.528Z,97490.00
2018-06-16T21:23:49.112Z,97493.56
2018-06-16T21:26:18.632Z,97491.36
2018-06-16T21:28:49.108Z,97497.12
2018-06-16T21:31:19.032Z,97496.28
2018-06-16T21:33:48.523Z,97495.25
2018-06-16T21:36:18.096Z,97493.89
2018-06-16T21:38:47.625Z,97494.73
2018-06-16T21:41:17.081Z,97494.22
2018-06-16T21:43:46.902Z,97494.22
2018-06-16T21:46:16.879Z,97483.35
2018-06-16T21:48:47.277Z,97483.17
2018-06-16T21:51:20.687Z,97492.68
2018-06-16T21:53:50.423Z,97491.32
2018-06-16T21:56:20.319Z,97493.53
2018-06-16T21:58:50.512Z,97496.06
2018-06-16T22:01:20.155Z,97500.65
2018-06-16T22:03:49.664Z,97497.42
2018-06-16T22:06:19.518Z,97499.29
2018-06-16T22:08:51.879Z,97494.19
2018-06-16T22:11:21.323Z,97498.56
2018-06-16T22:13:52.036Z,97501.27
2018-06-16T22:16:21.551Z,97502.97
2018-06-16T22:18:51.481Z,97498.89
2018-06-16T22:21:21.168Z,97500.25
2018-06-16T22:23:50.778Z,97494.30
2018-06-16T22:26:20.402Z,97485.63
2018-06-16T22:29:17.143Z,97489.19
2018-06-16T22:31:47.196Z,97486.03
2018-06-16T22:34:24.149Z,97493.37
2018-06-16T22:36:55.728Z,97480.67
2018-06-16T22:39:25.172Z,97480.38
2018-06-16T22:41:55.383Z,97480.23
2018-06-16T22:44:24.913Z,97487.88
2018-06-16T22:46:54.422Z,97482.62
2018-06-16T22:49:23.912Z,97483.64
2018-06-16T22:51:53.332Z,97483.83
2018-06-16T22:54:22.923Z,97485.37
2018-06-16T22:56:52.323Z,97486.41
2018-06-16T22:59:21.683Z,97485.77
2018-06-16T23:01:51.185Z,97485.95
2018-06-16T23:04:20.712Z,97488.02
2018-06-16T23:06:50.544Z,97499.39
2018-06-16T23:09:20.075Z,97502.30
2018-06-16T23:11:49.629Z,97500.61
2018-06-16T23:14:19.148Z,97493.19
2018-06-16T23:16:48.612Z,97493.70
2018-06-16T23:19:18.589Z,97493.55
2018-06-16T23:21:48.197Z,97495.09
2018-06-16T23:24:18.926Z,97489.33
2018-06-16T23:26:49.235Z,97493.91
2018-06-16T23:29:18.651Z,97491.23
2018-06-16T23:31:48.130Z,97493.95
2018-06-16T23:34:17.669Z,97498.53
2018-06-16T23:36:47.708Z,97498.72
2018-06-16T23:39:17.222Z,97500.08
2018-06-16T23:41:46.758Z,97506.53
2018-06-16T23:44:16.237Z,97509.10
2018-06-16T23:46:45.622Z,97508.77
2018-06-16T23:49:15.187Z,97510.67
2018-06-16T23:51:44.710Z,97504.91
2018-06-16T23:54:14.275Z,97511.37
2018-06-16T23:56:43.798Z,97505.61
2018-06-16T23:59:13.321Z,97507.14
